Price, Utah
Current Conditions -  °F | °C
As of 8:53 PM on Thursday 18 Dec 2014 (Local Time) from KPUC Reporting Station
Overcast Overcast  
Wind Chill: 23°   Ceiling: 8000
Heat Index: 28°   Visibility: 10mi
Dew Point: 24°   Wind: 5mph
Humidity: 85%   Direction: 20°NNE
Pressure: 30.17"   Gusts: NA
Location:  39.6°N, 110.81°W
Report Text: KPUC 190353Z AUTO 02004KT 10SM OVC080 M02/M04 A3017 RMK AO2 SLP264 T10221044
Loading
Personal Weather Stations






























Interactive Weather Map New forecast layout! Learn more

10-Day Weather Forecast

Advertisements
Track Severe Weather on mobile